Time;durP1;ratioP1;P1;durP2;ratioP2;P2;SDS_P1;SDS_P2;PMS_P1;PMS_P2;Temp;Humidity;BMP_temperature;BMP_pressure;BME280_temperature;BME280_humidity;BME280_pressure;Samples;Min_cycle;Max_cycle;Signal;HPM_P1;HPM_P2
2021/06/17 00:01:17;;;;;;;8.30;3.60;;;22.40;96.00;;;;;;5062254;28;20174;-60
2021/06/17 00:03:42;;;;;;;4.07;3.20;;;22.30;95.90;;;;;;5074114;28;20718;-61
2021/06/17 00:06:08;;;;;;;5.68;3.45;;;22.20;95.90;;;;;;5075416;28;20190;-61
2021/06/17 00:08:34;;;;;;;4.87;3.33;;;22.20;96.40;;;;;;5075371;28;20527;-61
2021/06/17 00:11:00;;;;;;;3.70;3.37;;;22.20;96.50;;;;;;5074044;28;20650;-59
2021/06/17 00:13:28;;;;;;;5.10;3.50;;;22.10;96.20;;;;;;5074473;28;20531;-60
2021/06/17 00:15:58;;;;;;;3.45;3.15;;;22.10;96.40;;;;;;5075103;28;20214;-60
2021/06/17 00:18:24;;;;;;;3.73;3.33;;;22.00;96.60;;;;;;5073969;28;20290;-60
2021/06/17 00:20:50;;;;;;;3.50;3.03;;;21.90;96.80;;;;;;5073434;28;20218;-60
2021/06/17 00:23:16;;;;;;;4.40;3.80;;;21.90;97.00;;;;;;5073588;28;20245;-61
2021/06/17 00:25:42;;;;;;;3.50;3.20;;;21.90;97.10;;;;;;5074515;28;20210;-60
2021/06/17 00:28:07;;;;;;;4.57;3.50;;;21.80;97.00;;;;;;5074478;28;20221;-58
2021/06/17 00:30:33;;;;;;;4.23;3.10;;;21.70;97.00;;;;;;5073571;28;20182;-59
2021/06/17 00:32:59;;;;;;;4.30;3.60;;;21.80;97.00;;;;;;5074617;28;20296;-59
2021/06/17 00:35:25;;;;;;;4.77;3.50;;;21.70;97.00;;;;;;5073523;28;20217;-60
2021/06/17 00:37:52;;;;;;;6.10;3.70;;;21.70;97.10;;;;;;5074268;28;20217;-60
2021/06/17 00:40:18;;;;;;;3.60;3.30;;;21.60;97.30;;;;;;5074516;28;20207;-60
2021/06/17 00:42:47;;;;;;;3.83;3.43;;;21.60;97.60;;;;;;5073408;28;20371;-59
2021/06/17 00:45:21;;;;;;;5.90;3.90;;;21.60;97.60;;;;;;5074079;28;20197;-60
2021/06/17 00:47:47;;;;;;;4.40;4.00;;;21.50;97.60;;;;;;5074643;28;20201;-59
2021/06/17 00:50:13;;;;;;;3.60;3.30;;;21.50;97.60;;;;;;5074501;28;20167;-58
2021/06/17 00:52:39;;;;;;;4.00;3.60;;;21.40;97.70;;;;;;5072937;28;20597;-60
2021/06/17 00:55:05;;;;;;;4.83;3.43;;;21.40;97.70;;;;;;5074249;28;20623;-61
2021/06/17 00:57:31;;;;;;;6.07;3.50;;;21.30;97.70;;;;;;5074078;28;20229;-60
2021/06/17 00:59:57;;;;;;;3.77;3.43;;;21.30;97.70;;;;;;5073313;28;20170;-56
2021/06/17 01:02:23;;;;;;;3.67;3.37;;;21.30;97.80;;;;;;5073505;28;20206;-60
2021/06/17 01:04:48;;;;;;;3.53;3.23;;;21.30;97.80;;;;;;5073981;28;20586;-59
2021/06/17 01:07:37;;;;;;;5.57;3.30;;;21.30;97.90;;;;;;5072880;28;20662;-61
2021/06/17 01:10:12;;;;;;;4.03;3.60;;;21.20;98.00;;;;;;5074231;28;20237;-58
2021/06/17 01:13:08;;;;;;;4.43;3.63;;;21.20;98.00;;;;;;5072943;28;20170;-60
2021/06/17 01:15:39;;;;;;;4.53;3.70;;;21.10;98.10;;;;;;5073932;28;20171;-61
2021/06/17 01:18:14;;;;;;;5.40;3.43;;;21.10;98.10;;;;;;5072736;28;20216;-56
2021/06/17 01:20:54;;;;;;;4.13;3.37;;;21.10;98.10;;;;;;5074323;28;20166;-60
2021/06/17 01:23:39;;;;;;;4.90;3.60;;;21.00;98.20;;;;;;5072909;28;20186;-57
2021/06/17 01:26:13;;;;;;;6.57;3.70;;;21.00;98.30;;;;;;5074025;28;20169;-60
2021/06/17 01:28:41;;;;;;;3.93;3.20;;;20.90;98.50;;;;;;5073861;28;20264;-61
2021/06/17 01:31:14;;;;;;;4.37;3.53;;;20.90;98.00;;;;;;5073570;28;20167;-61
2021/06/17 01:33:43;;;;;;;4.00;3.47;;;20.90;98.20;;;;;;5072658;28;20186;-59
2021/06/17 01:36:23;;;;;;;3.50;3.20;;;20.90;98.10;;;;;;5073694;28;20634;-58
2021/06/17 01:38:57;;;;;;;4.30;3.50;;;20.90;98.10;;;;;;5072661;28;20190;-59
2021/06/17 01:41:27;;;;;;;4.90;3.60;;;20.90;98.00;;;;;;5073414;28;20182;-60
2021/06/17 01:43:52;;;;;;;4.93;3.70;;;20.90;98.20;;;;;;5071836;28;20218;-60
2021/06/17 01:46:19;;;;;;;5.37;3.43;;;20.80;98.30;;;;;;5071349;28;20178;-59
2021/06/17 01:48:47;;;;;;;4.50;3.40;;;20.80;98.30;;;;;;5070753;28;20171;-60
2021/06/17 01:51:22;;;;;;;4.10;3.50;;;20.80;98.30;;;;;;5072007;28;20566;-59
2021/06/17 01:53:49;;;;;;;4.03;3.50;;;20.80;98.50;;;;;;5073950;28;20175;-58
2021/06/17 01:56:19;;;;;;;3.23;2.97;;;20.80;98.60;;;;;;5072378;28;20187;-59
2021/06/17 01:58:47;;;;;;;3.90;3.50;;;20.80;98.60;;;;;;5073776;28;20170;-59
2021/06/17 02:01:15;;;;;;;4.70;3.67;;;20.70;98.60;;;;;;5072363;28;20201;-60
2021/06/17 02:03:44;;;;;;;4.57;3.53;;;20.70;98.80;;;;;;5073300;28;20266;-61
2021/06/17 02:06:14;;;;;;;4.13;3.33;;;20.60;99.10;;;;;;5073474;28;20619;-61
2021/06/17 02:08:41;;;;;;;3.93;3.43;;;20.60;99.10;;;;;;5073697;28;20531;-59
2021/06/17 02:11:07;;;;;;;5.77;3.67;;;20.50;99.00;;;;;;5073364;28;20257;-59
2021/06/17 02:13:33;;;;;;;3.93;3.33;;;20.60;99.10;;;;;;5073298;28;20599;-58
2021/06/17 02:16:03;;;;;;;4.37;3.97;;;20.50;99.20;;;;;;5075557;28;20182;-60
2021/06/17 02:18:29;;;;;;;4.83;3.43;;;20.40;99.20;;;;;;5076928;28;20674;-58
2021/06/17 02:20:55;;;;;;;5.20;3.80;;;20.40;99.10;;;;;;5076829;28;20219;-59
2021/06/17 02:23:22;;;;;;;4.20;3.60;;;20.40;99.10;;;;;;5077284;28;20203;-61
2021/06/17 02:25:51;;;;;;;3.97;3.63;;;20.40;99.10;;;;;;5076617;28;20178;-59
2021/06/17 02:28:20;;;;;;;4.90;3.53;;;20.40;99.10;;;;;;5076346;28;20211;-60
2021/06/17 02:30:47;;;;;;;4.40;3.60;;;20.40;99.20;;;;;;5076218;28;20170;-59
2021/06/17 02:33:16;;;;;;;6.00;3.53;;;20.40;99.30;;;;;;5074050;28;20171;-61
2021/06/17 02:35:44;;;;;;;4.20;3.40;;;20.40;99.20;;;;;;5076765;28;20546;-61
2021/06/17 02:38:15;;;;;;;4.33;3.60;;;20.40;99.30;;;;;;5076487;28;20634;-61
2021/06/17 02:40:46;;;;;;;3.87;3.50;;;20.40;99.30;;;;;;5077313;28;20181;-60
2021/06/17 02:43:16;;;;;;;5.07;3.90;;;20.40;99.40;;;;;;5076396;28;20198;-58
2021/06/17 02:45:44;;;;;;;5.03;3.70;;;20.30;99.50;;;;;;5077136;28;20171;-59
2021/06/17 02:48:10;;;;;;;4.40;3.77;;;20.30;99.60;;;;;;5076722;28;20235;-60
2021/06/17 02:50:37;;;;;;;4.10;3.70;;;20.30;99.80;;;;;;5076665;28;20281;-60
2021/06/17 02:53:03;;;;;;;4.50;3.80;;;20.30;99.50;;;;;;5075394;28;20186;-61
2021/06/17 02:55:29;;;;;;;4.97;3.83;;;20.30;99.60;;;;;;5076587;28;20518;-58
2021/06/17 02:58:28;;;;;;;4.30;3.87;;;20.30;99.70;;;;;;5075856;28;20684;-61
2021/06/17 03:01:12;;;;;;;3.93;3.60;;;20.20;99.80;;;;;;5076109;28;20179;-58
2021/06/17 03:03:52;;;;;;;4.27;3.77;;;20.20;99.80;;;;;;5076512;28;20202;-59
2021/06/17 03:06:30;;;;;;;4.20;3.80;;;20.20;99.90;;;;;;5075800;28;20511;-60
2021/06/17 03:09:02;;;;;;;4.80;3.60;;;20.10;99.80;;;;;;5075813;28;20238;-60
2021/06/17 03:11:32;;;;;;;4.00;3.60;;;20.20;99.80;;;;;;5076029;28;20186;-60
2021/06/17 03:14:09;;;;;;;4.47;3.83;;;20.20;99.90;;;;;;5073877;28;20238;-61
2021/06/17 03:16:37;;;;;;;3.50;3.20;;;20.20;99.90;;;;;;5075935;28;20194;-57
2021/06/17 03:19:03;;;;;;;4.70;3.60;;;20.10;99.90;;;;;;5076264;28;20630;-58
2021/06/17 03:21:32;;;;;;;5.70;3.70;;;20.10;99.90;;;;;;5076159;28;20635;-56
2021/06/17 03:24:00;;;;;;;4.13;3.73;;;20.10;99.90;;;;;;5074785;28;20226;-58
2021/06/17 03:26:27;;;;;;;4.87;4.17;;;20.10;99.90;;;;;;5076057;28;20204;-59
2021/06/17 03:28:54;;;;;;;4.90;3.60;;;20.10;99.90;;;;;;5074993;28;20178;-59
2021/06/17 03:31:20;;;;;;;4.00;3.60;;;20.00;99.90;;;;;;5075634;28;20603;-61
2021/06/17 03:33:49;;;;;;;5.47;3.83;;;20.00;99.90;;;;;;5074564;28;20230;-59
2021/06/17 03:36:15;;;;;;;4.27;3.80;;;20.00;99.90;;;;;;5075834;28;20178;-55
2021/06/17 03:38:43;;;;;;;4.63;3.80;;;20.00;99.90;;;;;;5075934;28;20630;-59
2021/06/17 03:41:11;;;;;;;4.57;3.43;;;20.00;99.90;;;;;;5074361;28;20639;-57
2021/06/17 03:43:38;;;;;;;4.33;3.57;;;20.00;99.90;;;;;;5075497;28;20190;-60
2021/06/17 03:46:04;;;;;;;4.87;3.50;;;20.00;99.90;;;;;;5075329;28;20682;-60
2021/06/17 03:48:31;;;;;;;4.03;3.60;;;20.00;99.90;;;;;;5075364;28;20288;-60
2021/06/17 03:50:59;;;;;;;4.03;3.67;;;20.70;99.90;;;;;;5075686;28;20172;-60
2021/06/17 03:53:25;;;;;;;6.20;3.80;;;20.00;99.90;;;;;;5075553;28;20179;-59
2021/06/17 03:55:53;;;;;;;4.00;3.60;;;20.00;99.90;;;;;;5074322;28;20277;-60
2021/06/17 03:58:25;;;;;;;4.80;3.77;;;20.00;99.90;;;;;;5075126;28;20218;-57
2021/06/17 04:00:54;;;;;;;4.97;4.00;;;20.00;99.90;;;;;;5074023;28;20645;-60
2021/06/17 04:03:20;;;;;;;4.30;3.90;;;20.10;99.90;;;;;;5075562;28;20207;-61
2021/06/17 04:05:47;;;;;;;5.60;3.80;;;20.00;99.90;;;;;;5075201;28;20182;-61
2021/06/17 04:08:15;;;;;;;4.77;3.60;;;20.10;99.90;;;;;;5075131;28;20233;-60
2021/06/17 04:10:42;;;;;;;4.73;3.50;;;20.10;99.90;;;;;;5075226;28;20179;-59
2021/06/17 04:13:11;;;;;;;4.53;3.17;;;20.20;99.90;;;;;;5073830;28;20948;-59
2021/06/17 04:15:37;;;;;;;4.03;3.63;;;20.20;99.90;;;;;;5074547;28;20178;-60
2021/06/17 04:18:04;;;;;;;4.00;3.60;;;20.30;99.90;;;;;;5074371;28;20202;-60
2021/06/17 04:20:34;;;;;;;4.00;3.70;;;20.40;99.90;;;;;;5074495;28;20175;-60
2021/06/17 04:23:01;;;;;;;4.67;3.70;;;20.50;99.90;;;;;;5074730;28;20194;-61
2021/06/17 04:25:28;;;;;;;4.40;4.00;;;20.50;99.90;;;;;;5073471;28;20317;-59
2021/06/17 04:27:58;;;;;;;5.03;4.00;;;20.60;99.90;;;;;;5074725;28;20257;-60
2021/06/17 04:30:26;;;;;;;4.17;3.73;;;20.60;99.90;;;;;;5073888;28;20155;-58
2021/06/17 04:32:53;;;;;;;4.60;3.57;;;20.70;99.90;;;;;;5074873;28;20251;-59
2021/06/17 04:35:21;;;;;;;4.40;3.70;;;20.80;99.90;;;;;;5074991;28;20652;-60
2021/06/17 04:37:47;;;;;;;4.50;3.50;;;20.80;99.90;;;;;;5072734;28;20268;-61
2021/06/17 04:40:15;;;;;;;4.17;3.40;;;20.80;99.90;;;;;;5074003;28;20174;-58
2021/06/17 04:42:41;;;;;;;4.67;3.60;;;20.90;99.90;;;;;;5073465;28;20252;-60
2021/06/17 04:45:07;;;;;;;6.13;3.50;;;21.00;99.90;;;;;;5074341;28;20174;-58
2021/06/17 04:47:36;;;;;;;5.37;3.97;;;21.00;99.90;;;;;;5073222;28;20253;-60
2021/06/17 04:50:03;;;;;;;5.03;3.60;;;21.10;99.90;;;;;;5074878;28;20185;-58
2021/06/17 04:52:39;;;;;;;4.93;3.87;;;21.10;99.90;;;;;;5073606;28;20224;-60
2021/06/17 04:55:06;;;;;;;4.43;3.57;;;21.10;99.90;;;;;;5074334;28;20229;-61
2021/06/17 04:57:31;;;;;;;4.47;4.00;;;21.20;99.90;;;;;;5074152;28;20256;-59
2021/06/17 04:59:57;;;;;;;4.53;4.10;;;21.30;99.90;;;;;;5074271;28;20179;-58
2021/06/17 05:02:23;;;;;;;4.63;4.23;;;21.40;99.90;;;;;;5073541;28;20233;-60
2021/06/17 05:04:49;;;;;;;4.30;3.90;;;21.40;99.90;;;;;;5074747;28;20179;-60
2021/06/17 05:12:24;;;;;;;3.77;3.40;;;21.60;99.90;;;;;;5072848;28;20336;-61
2021/06/17 05:14:50;;;;;;;5.67;3.93;;;21.60;99.90;;;;;;5074132;28;20212;-58
2021/06/17 05:17:15;;;;;;;5.00;4.50;;;21.70;99.90;;;;;;5069372;28;20208;-55
2021/06/17 05:19:41;;;;;;;4.43;4.03;;;21.70;99.90;;;;;;5053339;28;20258;-60
2021/06/17 05:22:09;;;;;;;4.10;3.70;;;21.80;99.90;;;;;;5073320;28;20187;-60
2021/06/17 05:24:35;;;;;;;5.73;4.17;;;21.90;99.90;;;;;;5061163;28;20175;-61
2021/06/17 05:27:01;;;;;;;5.00;3.70;;;21.90;99.90;;;;;;5055901;28;20267;-60
2021/06/17 05:29:28;;;;;;;5.33;3.47;;;22.00;99.90;;;;;;5056896;28;20175;-58
2021/06/17 05:31:54;;;;;;;6.43;3.42;;;22.10;99.90;;;;;;5054853;28;20244;-60
2021/06/17 05:34:19;;;;;;;4.13;3.65;;;22.20;99.90;;;;;;5052837;28;20180;-59
2021/06/17 05:36:46;;;;;;;4.20;3.80;;;22.20;99.90;;;;;;5054578;28;20242;-57
2021/06/17 05:39:12;;;;;;;4.03;3.53;;;22.40;99.90;;;;;;5056118;28;20223;-58
2021/06/17 05:41:37;;;;;;;5.97;3.95;;;22.50;99.90;;;;;;5054115;28;20209;-56
2021/06/17 05:44:03;;;;;;;4.10;3.65;;;22.60;99.90;;;;;;5053413;28;20200;-60
2021/06/17 05:46:28;;;;;;;4.43;3.55;;;22.70;99.90;;;;;;5069980;28;20184;-60
2021/06/17 05:48:54;;;;;;;4.20;3.75;;;22.80;99.90;;;;;;5062400;28;20188;-55
2021/06/17 05:51:19;;;;;;;7.38;4.28;;;22.80;99.90;;;;;;5056679;28;20170;-57
2021/06/17 05:53:45;;;;;;;4.68;4.28;;;22.90;99.90;;;;;;5056939;28;20185;-56
2021/06/17 05:56:11;;;;;;;5.22;3.80;;;23.00;99.90;;;;;;5057321;28;20227;-60
2021/06/17 05:58:36;;;;;;;5.63;3.85;;;23.00;99.90;;;;;;5058061;28;20178;-60
2021/06/17 06:01:03;;;;;;;6.43;4.55;;;23.10;99.90;;;;;;5056324;28;20203;-60
2021/06/17 06:03:28;;;;;;;6.85;4.85;;;23.10;99.90;;;;;;5057295;28;20216;-59
2021/06/17 06:05:54;;;;;;;5.25;4.75;;;22.90;99.90;;;;;;5057301;28;20570;-55
2021/06/17 06:08:19;;;;;;;6.72;4.85;;;22.80;99.90;;;;;;5056161;28;20210;-57
2021/06/17 06:10:45;;;;;;;6.35;5.13;;;22.70;99.90;;;;;;5057768;28;20178;-54
2021/06/17 06:13:11;;;;;;;9.85;5.35;;;22.80;99.90;;;;;;5056053;28;20174;-57
2021/06/17 06:15:37;;;;;;;5.68;4.78;;;22.80;99.90;;;;;;5057102;28;20573;-59
2021/06/17 06:18:13;;;;;;;6.03;4.35;;;22.90;99.90;;;;;;5055656;28;20226;-57
2021/06/17 06:20:41;;;;;;;5.45;4.80;;;23.00;99.90;;;;;;5057293;28;20190;-60
2021/06/17 06:23:07;;;;;;;5.82;4.90;;;23.10;99.90;;;;;;5056946;28;20245;-60
2021/06/17 06:25:34;;;;;;;4.95;4.22;;;23.20;99.90;;;;;;5056008;28;20199;-58
2021/06/17 06:28:00;;;;;;;4.30;3.90;;;23.40;99.90;;;;;;5057122;28;20183;-56
2021/06/17 06:30:25;;;;;;;4.43;3.90;;;23.50;99.90;;;;;;5057460;28;20171;-56
2021/06/17 06:32:51;;;;;;;8.65;4.85;;;23.50;99.90;;;;;;5056063;28;20539;-59
2021/06/17 06:35:17;;;;;;;4.88;4.35;;;23.50;99.90;;;;;;5056479;28;20171;-60
2021/06/17 06:37:49;;;;;;;4.82;4.38;;;23.40;99.90;;;;;;5056784;28;20210;-58
2021/06/17 06:40:17;;;;;;;5.30;4.35;;;23.50;99.90;;;;;;5056309;28;20163;-60
2021/06/17 06:42:43;;;;;;;4.90;4.38;;;23.50;99.90;;;;;;5056617;28;20195;-60
2021/06/17 06:45:09;;;;;;;5.53;3.47;;;23.70;99.90;;;;;;5055590;28;20192;-58
2021/06/17 06:47:35;;;;;;;3.70;3.28;;;23.70;99.90;;;;;;5055367;28;20191;-60
2021/06/17 06:50:00;;;;;;;7.05;3.40;;;23.80;99.90;;;;;;5056758;28;20178;-60
2021/06/17 06:52:26;;;;;;;3.80;2.88;;;23.80;99.90;;;;;;5055404;28;20654;-55
2021/06/17 06:54:51;;;;;;;4.28;3.00;;;23.90;99.90;;;;;;5057339;28;20622;-60
2021/06/17 06:57:17;;;;;;;3.30;3.03;;;24.00;99.90;;;;;;5055543;28;20205;-59
2021/06/17 06:59:42;;;;;;;5.60;3.70;;;24.00;99.90;;;;;;5056647;28;20282;-59
2021/06/17 07:02:08;;;;;;;3.63;3.13;;;24.10;99.90;;;;;;5055872;28;20655;-57
2021/06/17 07:04:34;;;;;;;3.78;3.03;;;24.40;99.90;;;;;;5055713;28;20168;-59
2021/06/17 07:07:00;;;;;;;3.40;3.10;;;24.40;99.90;;;;;;5056402;28;20195;-61
2021/06/17 07:09:25;;;;;;;3.90;2.97;;;24.40;99.90;;;;;;5056326;28;20175;-60
2021/06/17 07:11:51;;;;;;;3.13;2.83;;;24.50;99.90;;;;;;5055920;28;20175;-60
2021/06/17 07:14:16;;;;;;;4.35;3.10;;;24.60;99.70;;;;;;5055024;28;20270;-58
2021/06/17 07:16:42;;;;;;;3.20;2.67;;;24.60;99.30;;;;;;5056185;28;20191;-59
2021/06/17 07:19:08;;;;;;;4.55;3.10;;;24.70;99.90;;;;;;5055998;28;20192;-60
2021/06/17 07:21:34;;;;;;;3.70;2.90;;;24.80;99.60;;;;;;5055608;28;20168;-58
2021/06/17 07:24:00;;;;;;;3.58;3.25;;;24.90;99.60;;;;;;5056190;28;20195;-59
2021/06/17 07:26:28;;;;;;;5.43;3.25;;;24.80;99.70;;;;;;5054875;28;20194;-60
2021/06/17 07:28:56;;;;;;;5.50;3.25;;;24.80;99.10;;;;;;5055901;28;20174;-60
2021/06/17 07:31:22;;;;;;;3.40;3.10;;;24.90;99.00;;;;;;5054770;28;20221;-60
2021/06/17 07:33:47;;;;;;;3.72;3.20;;;24.90;98.90;;;;;;5055636;28;20678;-60
2021/06/17 07:36:14;;;;;;;4.28;3.25;;;24.90;99.10;;;;;;5056096;28;20179;-59
2021/06/17 07:38:40;;;;;;;3.50;3.20;;;25.00;98.70;;;;;;5056089;28;20587;-57
2021/06/17 07:41:05;;;;;;;3.20;3.00;;;25.00;98.10;;;;;;5055671;28;20647;-58
2021/06/17 07:43:32;;;;;;;4.63;3.03;;;25.10;99.20;;;;;;5054512;28;20711;-60
2021/06/17 07:45:58;;;;;;;3.20;2.90;;;25.20;99.20;;;;;;5055771;28;20539;-60
2021/06/17 07:48:24;;;;;;;3.67;3.10;;;25.30;98.30;;;;;;5054238;28;20559;-59
2021/06/17 07:50:50;;;;;;;3.58;3.28;;;25.40;98.40;;;;;;5055686;28;20185;-55
2021/06/17 07:53:15;;;;;;;3.80;3.00;;;25.40;98.00;;;;;;5055596;28;20618;-57
2021/06/17 07:55:42;;;;;;;3.53;3.22;;;25.50;98.30;;;;;;5055716;28;20613;-57
2021/06/17 07:58:08;;;;;;;3.30;3.00;;;25.50;98.40;;;;;;5054198;28;20202;-60
2021/06/17 08:00:33;;;;;;;3.38;3.08;;;25.50;97.30;;;;;;5055286;28;20258;-60
2021/06/17 08:02:59;;;;;;;3.78;3.35;;;25.80;97.80;;;;;;5053870;28;20203;-60
2021/06/17 08:05:26;;;;;;;3.85;3.25;;;25.90;97.90;;;;;;5054669;28;20179;-59
2021/06/17 08:07:51;;;;;;;4.18;2.83;;;25.90;97.80;;;;;;5055160;28;20187;-56
2021/06/17 08:10:17;;;;;;;3.85;3.20;;;26.00;97.30;;;;;;5053871;28;20228;-58
2021/06/17 08:12:42;;;;;;;3.90;2.90;;;26.10;96.90;;;;;;5054103;28;20581;-59
2021/06/17 08:15:08;;;;;;;5.15;3.05;;;26.20;98.00;;;;;;5054830;28;20180;-59
2021/06/17 08:17:34;;;;;;;3.97;3.15;;;26.40;98.10;;;;;;5053738;28;20192;-59
2021/06/17 08:19:59;;;;;;;4.60;3.10;;;26.50;96.20;;;;;;5054935;28;20202;-59
2021/06/17 08:22:27;;;;;;;3.13;2.92;;;26.60;96.90;;;;;;5055159;28;20234;-56
2021/06/17 08:24:53;;;;;;;3.15;2.90;;;26.60;96.40;;;;;;5053608;28;20194;-58
2021/06/17 08:27:19;;;;;;;3.58;2.95;;;26.80;96.60;;;;;;5054692;28;20527;-60
2021/06/17 08:29:45;;;;;;;3.00;2.58;;;26.90;97.10;;;;;;5055916;28;20630;-60
2021/06/17 08:32:10;;;;;;;5.18;3.42;;;27.00;96.40;;;;;;5074138;28;20162;-60
2021/06/17 08:34:36;;;;;;;3.92;3.15;;;27.00;96.20;;;;;;5073637;28;20550;-60
2021/06/17 08:37:04;;;;;;;3.47;3.03;;;27.00;95.50;;;;;;5074423;28;20209;-60
2021/06/17 08:39:31;;;;;;;3.65;3.10;;;26.90;96.50;;;;;;5074777;28;20165;-59
2021/06/17 08:41:56;;;;;;;3.53;2.90;;;26.90;95.60;;;;;;5073414;28;20182;-59
2021/06/17 08:44:23;;;;;;;4.90;3.42;;;27.00;95.70;;;;;;5074546;28;20245;-56
2021/06/17 08:46:50;;;;;;;19.70;8.10;;;27.00;95.90;;;;;;5073112;28;20698;-59
2021/06/17 08:49:16;;;;;;;6.13;4.65;;;27.20;97.00;;;;;;5074649;28;20178;-60
2021/06/17 08:51:42;;;;;;;3.60;3.30;;;27.30;96.90;;;;;;5074263;28;20189;-60
2021/06/17 08:54:08;;;;;;;3.80;3.50;;;27.60;98.00;;;;;;5073256;28;20241;-58
2021/06/17 08:56:35;;;;;;;3.60;2.80;;;27.70;96.80;;;;;;5074356;28;20198;-56
2021/06/17 08:59:01;;;;;;;4.28;3.47;;;27.70;96.00;;;;;;5074383;28;20174;-56
2021/06/17 09:01:27;;;;;;;3.83;3.38;;;27.60;95.70;;;;;;5073805;28;20576;-55
2021/06/17 09:03:54;;;;;;;3.63;3.33;;;27.60;95.80;;;;;;5073274;28;20588;-57
2021/06/17 09:06:23;;;;;;;3.70;3.40;;;27.70;96.70;;;;;;5073980;28;20170;-60
2021/06/17 09:09:00;;;;;;;3.55;3.25;;;27.90;97.20;;;;;;5073009;28;20642;-57
2021/06/17 09:11:27;;;;;;;3.45;3.15;;;28.00;94.50;;;;;;5073881;28;20198;-58
2021/06/17 09:14:12;;;;;;;5.00;3.35;;;28.00;94.70;;;;;;5074256;28;20261;-59
2021/06/17 09:16:37;;;;;;;3.63;3.20;;;28.10;96.10;;;;;;5072374;28;20221;-57
2021/06/17 09:19:03;;;;;;;4.28;3.35;;;28.20;96.50;;;;;;5072081;28;20183;-55
2021/06/17 09:21:29;;;;;;;4.43;3.53;;;28.50;96.10;;;;;;5071355;28;20252;-59
2021/06/17 09:23:54;;;;;;;3.65;3.35;;;28.50;93.80;;;;;;5071286;28;20198;-57
2021/06/17 09:26:23;;;;;;;3.45;3.05;;;28.50;94.00;;;;;;5071602;28;20261;-60
2021/06/17 09:29:00;;;;;;;3.35;3.05;;;28.60;94.50;;;;;;5071036;28;20713;-58
2021/06/17 09:31:29;;;;;;;4.38;3.10;;;28.60;93.20;;;;;;5071474;28;20179;-59
2021/06/17 09:33:54;;;;;;;3.30;3.10;;;28.60;93.60;;;;;;5072371;28;20203;-60
2021/06/17 09:36:22;;;;;;;4.13;3.03;;;28.60;93.50;;;;;;5072532;28;20240;-57
2021/06/17 09:39:11;;;;;;;4.25;3.13;;;28.70;93.80;;;;;;5073853;28;20202;-57
2021/06/17 09:41:44;;;;;;;3.30;2.97;;;28.60;93.30;;;;;;5073875;28;20185;-58
2021/06/17 09:44:32;;;;;;;3.55;3.25;;;28.90;93.70;;;;;;5072510;28;20365;-57
2021/06/17 09:47:14;;;;;;;5.65;3.25;;;29.10;93.80;;;;;;5073430;28;20662;-58
2021/06/17 09:49:42;;;;;;;3.50;3.25;;;29.10;92.60;;;;;;5072824;28;20204;-55
2021/06/17 09:52:09;;;;;;;3.58;2.83;;;29.10;92.60;;;;;;5073638;28;20635;-56
2021/06/17 09:54:39;;;;;;;3.25;2.95;;;29.10;93.50;;;;;;5073689;28;20639;-58
2021/06/17 09:57:18;;;;;;;3.67;3.22;;;29.30;92.50;;;;;;5073814;28;20203;-60
2021/06/17 09:59:53;;;;;;;3.13;2.83;;;29.50;92.30;;;;;;5074107;28;20166;-59
2021/06/17 10:02:24;;;;;;;3.03;2.72;;;29.70;93.30;;;;;;5072318;28;20217;-59
2021/06/17 10:04:50;;;;;;;3.40;3.10;;;29.70;91.50;;;;;;5073380;28;20167;-60
2021/06/17 10:07:20;;;;;;;4.15;3.42;;;29.80;91.90;;;;;;5073526;28;20198;-59
2021/06/17 10:09:46;;;;;;;3.50;3.20;;;29.80;92.00;;;;;;5072767;28;20202;-60
2021/06/17 10:12:12;;;;;;;3.80;2.75;;;30.10;94.40;;;;;;5073359;28;20174;-60
2021/06/17 10:14:38;;;;;;;3.35;3.00;;;30.10;91.20;;;;;;5073297;28;20175;-60
2021/06/17 10:17:04;;;;;;;3.92;3.28;;;29.90;91.20;;;;;;5073230;28;20605;-58
2021/06/17 10:19:33;;;;;;;3.65;3.35;;;30.00;92.30;;;;;;5073257;28;20180;-58
2021/06/17 10:22:01;;;;;;;3.75;3.13;;;30.10;92.20;;;;;;5072165;28;20690;-58
2021/06/17 10:24:29;;;;;;;5.03;3.10;;;30.20;91.70;;;;;;5073452;28;20170;-56
2021/06/17 10:27:08;;;;;;;3.30;2.90;;;30.30;90.90;;;;;;5073793;28;20217;-57
2021/06/17 10:29:36;;;;;;;3.45;3.10;;;30.50;91.60;;;;;;5072424;28;20151;-58
2021/06/17 10:32:04;;;;;;;3.38;3.08;;;30.70;91.60;;;;;;5069613;28;20194;-57
2021/06/17 10:34:34;;;;;;;3.50;3.20;;;30.90;90.80;;;;;;5072948;28;20183;-60
2021/06/17 10:37:06;;;;;;;4.63;3.20;;;31.20;92.80;;;;;;5073376;28;20221;-59
2021/06/17 10:40:10;;;;;;;3.20;2.90;;;31.30;90.30;;;;;;5075680;28;20265;-59
2021/06/17 10:42:43;;;;;;;5.88;3.20;;;31.40;90.80;;;;;;5052925;28;20210;-58
2021/06/17 10:45:32;;;;;;;3.60;3.30;;;31.50;91.20;;;;;;5076581;28;20265;-57
2021/06/17 10:48:05;;;;;;;4.38;3.20;;;31.70;90.40;;;;;;5067872;28;20203;-58
2021/06/17 10:50:42;;;;;;;3.28;2.97;;;31.90;90.10;;;;;;5057519;28;20165;-60
2021/06/17 10:53:39;;;;;;;3.05;2.85;;;31.80;88.80;;;;;;5055499;28;20195;-59
2021/06/17 10:56:16;;;;;;;3.53;2.90;;;31.90;90.10;;;;;;5056487;28;20623;-60
2021/06/17 10:58:41;;;;;;;3.13;2.88;;;31.90;88.70;;;;;;5055560;28;20619;-57
2021/06/17 11:01:45;;;;;;;3.20;2.72;;;31.80;87.10;;;;;;5056244;28;20186;-59
2021/06/17 11:04:12;;;;;;;4.22;3.05;;;31.90;89.20;;;;;;5055226;28;20246;-60
2021/06/17 11:06:49;;;;;;;8.15;2.85;;;31.90;88.30;;;;;;5056716;28;20199;-61
2021/06/17 11:09:39;;;;;;;3.17;2.92;;;31.70;88.10;;;;;;5056475;28;20357;-60
2021/06/17 11:12:17;;;;;;;3.15;2.85;;;31.60;89.80;;;;;;5056080;28;20206;-60
2021/06/17 11:14:44;;;;;;;4.90;2.85;;;31.70;90.80;;;;;;5056399;28;20696;-59
2021/06/17 11:20:02;;;;;;;4.15;2.97;;;31.70;91.80;;;;;;5056897;28;20608;-58
2021/06/17 11:22:35;;;;;;;4.22;3.28;;;31.60;86.70;;;;;;5056142;28;20203;-58
2021/06/17 11:25:15;;;;;;;3.42;3.13;;;31.50;89.20;;;;;;5054910;28;20187;-61
2021/06/17 11:28:01;;;;;;;4.13;2.90;;;31.60;86.90;;;;;;5054867;28;20199;-58
2021/06/17 11:30:41;;;;;;;3.00;2.80;;;31.90;86.40;;;;;;5054667;28;20167;-58
2021/06/17 11:33:34;;;;;;;3.75;3.20;;;32.20;89.30;;;;;;5055720;28;20202;-56
2021/06/17 11:36:03;;;;;;;3.20;2.90;;;32.50;84.00;;;;;;5054923;28;20253;-58
2021/06/17 11:38:34;;;;;;;3.97;3.22;;;32.50;88.10;;;;;;5055457;28;20257;-60
2021/06/17 11:41:13;;;;;;;3.75;3.10;;;32.30;87.30;;;;;;5056153;28;20160;-60
2021/06/17 11:43:40;;;;;;;3.53;3.05;;;32.30;88.70;;;;;;5054787;28;20256;-55
2021/06/17 11:46:38;;;;;;;3.13;2.90;;;32.50;90.80;;;;;;5065031;28;20175;-57
2021/06/17 11:49:09;;;;;;;5.65;3.40;;;32.50;88.00;;;;;;5054965;28;20191;-59
2021/06/17 11:52:06;;;;;;;4.90;3.15;;;32.40;84.30;;;;;;5055574;28;20199;-60
2021/06/17 11:54:31;;;;;;;6.00;3.45;;;32.50;87.10;;;;;;5055715;28;20187;-60
2021/06/17 11:57:02;;;;;;;3.65;3.00;;;32.70;86.00;;;;;;5071737;28;20194;-59
2021/06/17 11:59:36;;;;;;;3.60;3.30;;;32.60;88.20;;;;;;5072420;28;20232;-60
2021/06/17 12:02:05;;;;;;;3.70;2.92;;;32.70;87.10;;;;;;5067743;28;20162;-58
2021/06/17 12:05:01;;;;;;;3.53;3.22;;;32.60;84.50;;;;;;5068844;28;20530;-58
2021/06/17 12:07:31;;;;;;;3.72;3.40;;;32.50;84.40;;;;;;5066984;28;20188;-59
2021/06/17 12:10:07;;;;;;;3.63;3.20;;;32.60;88.40;;;;;;5064976;28;20171;-57
2021/06/17 12:12:34;;;;;;;3.47;3.20;;;32.80;87.10;;;;;;5067150;28;20214;-54
2021/06/17 12:15:00;;;;;;;3.97;3.25;;;32.90;85.70;;;;;;5068799;28;20174;-59
2021/06/17 12:17:35;;;;;;;3.55;3.10;;;32.90;83.20;;;;;;5068340;28;20194;-60
2021/06/17 12:20:12;;;;;;;4.03;3.55;;;32.80;85.80;;;;;;5067511;28;20170;-60
2021/06/17 12:22:40;;;;;;;4.35;3.17;;;32.70;82.30;;;;;;5067624;28;20233;-60
2021/06/17 12:25:07;;;;;;;3.65;3.33;;;32.70;83.20;;;;;;5067672;28;20324;-58
2021/06/17 12:27:33;;;;;;;3.17;2.97;;;32.80;81.60;;;;;;5066606;28;20666;-58
2021/06/17 12:30:30;;;;;;;6.00;3.15;;;33.00;82.70;;;;;;5068000;28;20178;-55
2021/06/17 12:33:19;;;;;;;3.75;3.22;;;33.10;85.60;;;;;;5068043;28;20181;-59
2021/06/17 12:35:54;;;;;;;3.30;3.00;;;33.10;85.30;;;;;;5064340;28;20259;-59
2021/06/17 12:38:27;;;;;;;3.35;3.00;;;33.00;82.00;;;;;;5066533;28;20324;-59
2021/06/17 12:40:54;;;;;;;4.38;3.05;;;32.90;83.50;;;;;;5065900;28;20224;-60
2021/06/17 12:43:22;;;;;;;3.60;3.25;;;33.00;83.00;;;;;;5073495;28;20248;-59
2021/06/17 12:46:08;;;;;;;3.40;3.10;;;33.00;81.80;;;;;;5072552;28;20197;-57
2021/06/17 12:53:57;;;;;;;3.33;3.03;;;33.00;79.30;;;;;;5070282;28;20177;-60
2021/06/17 12:56:23;;;;;;;3.40;2.80;;;33.20;81.80;;;;;;5067705;28;20175;-60
2021/06/17 12:58:53;;;;;;;3.88;2.90;;;33.20;79.60;;;;;;5064624;28;20183;-59
2021/06/17 13:01:24;;;;;;;3.10;2.90;;;33.30;76.10;;;;;;5065046;28;20164;-60
2021/06/17 13:03:53;;;;;;;3.97;3.00;;;33.40;81.50;;;;;;5068931;28;20281;-59
2021/06/17 13:06:38;;;;;;;3.60;3.30;;;33.40;75.20;;;;;;5067442;28;20175;-58
2021/06/17 13:09:18;;;;;;;3.45;3.15;;;33.30;76.10;;;;;;5067231;28;20276;-60
2021/06/17 13:11:43;;;;;;;4.57;3.15;;;33.20;76.90;;;;;;5062691;27;20155;-56
2021/06/17 13:14:09;;;;;;;2.97;2.78;;;33.10;77.30;;;;;;5063291;28;20159;-59